Time;durP1;ratioP1;P1;durP2;ratioP2;P2;SDS_P1;SDS_P2;PMS_P1;PMS_P2;Temp;Humidity;BMP_temperature;BMP_pressure;BME280_temperature;BME280_humidity;BME280_pressure;Samples;Min_cycle;Max_cycle;Signal;HPM_P1;HPM_P2
2022/06/18 00:00:20;;;;;;;4.93;4.53;;;24.10;54.20;;;;;;5088482;28;20418;-86
2022/06/18 00:02:46;;;;;;;4.40;4.10;;;24.20;54.20;;;;;;5087760;28;20273;-86
2022/06/18 00:05:14;;;;;;;4.70;4.40;;;24.20;54.40;;;;;;5085254;28;20203;-84
2022/06/18 00:07:44;;;;;;;4.47;4.18;;;23.90;55.60;;;;;;5089972;28;20185;-84
2022/06/18 00:10:20;;;;;;;5.18;4.68;;;23.60;56.80;;;;;;5092753;28;20192;-85
2022/06/18 00:15:33;;;;;;;4.88;4.57;;;23.30;57.70;;;;;;5085228;28;20202;-84
2022/06/18 00:18:00;;;;;;;4.72;4.28;;;23.50;57.30;;;;;;5081367;28;20179;-84
2022/06/18 00:20:30;;;;;;;4.75;4.35;;;23.60;56.70;;;;;;5082800;28;20235;-83
2022/06/18 00:22:58;;;;;;;5.35;4.68;;;23.70;56.40;;;;;;5087090;28;20196;-83
2022/06/18 00:25:34;;;;;;;5.63;4.75;;;23.80;56.10;;;;;;5088780;28;20176;-84
2022/06/18 00:28:01;;;;;;;4.85;4.55;;;23.90;56.20;;;;;;5091718;28;20177;-84
2022/06/18 00:30:29;;;;;;;4.57;4.28;;;23.80;56.00;;;;;;5090045;28;20665;-84
2022/06/18 00:32:56;;;;;;;4.40;4.00;;;23.80;56.40;;;;;;5085270;28;20188;-85
2022/06/18 00:35:22;;;;;;;4.47;4.22;;;23.70;56.40;;;;;;5081897;28;20205;-84
2022/06/18 00:37:55;;;;;;;4.63;4.32;;;23.70;56.20;;;;;;5057165;28;20206;-85
2022/06/18 00:40:29;;;;;;;4.78;4.47;;;23.70;56.40;;;;;;5079868;28;20776;-84
2022/06/18 00:43:01;;;;;;;4.35;4.05;;;23.60;56.90;;;;;;5084853;28;20179;-84
2022/06/18 00:45:29;;;;;;;4.85;4.50;;;23.60;57.10;;;;;;5093123;28;20199;-84
2022/06/18 00:48:06;;;;;;;5.03;4.57;;;23.50;57.30;;;;;;5091131;28;20292;-84
2022/06/18 00:50:38;;;;;;;4.57;4.18;;;23.60;57.00;;;;;;5086261;28;20186;-84
2022/06/18 00:53:23;;;;;;;5.13;4.70;;;23.60;57.10;;;;;;5082863;28;20176;-84
2022/06/18 00:56:02;;;;;;;5.90;4.40;;;23.50;57.50;;;;;;5067331;28;20192;-84
2022/06/18 00:58:48;;;;;;;4.63;4.32;;;23.40;57.50;;;;;;5081010;28;20202;-84
2022/06/18 01:01:26;;;;;;;4.40;4.10;;;23.50;57.20;;;;;;5085951;28;20198;-84
2022/06/18 01:03:52;;;;;;;4.53;4.05;;;23.50;57.20;;;;;;5082235;28;20206;-84
2022/06/18 01:06:25;;;;;;;4.28;4.05;;;23.50;57.50;;;;;;5088770;28;20187;-84
2022/06/18 01:09:14;;;;;;;4.47;4.18;;;23.50;57.80;;;;;;5087217;28;20210;-84
2022/06/18 01:11:42;;;;;;;4.60;4.30;;;23.50;57.30;;;;;;5078144;28;20248;-85
2022/06/18 01:14:11;;;;;;;4.47;4.18;;;23.40;57.70;;;;;;5090526;28;20218;-84
2022/06/18 01:16:37;;;;;;;4.50;4.13;;;23.40;57.90;;;;;;5088311;28;20186;-84
2022/06/18 01:19:05;;;;;;;4.97;4.57;;;23.30;57.70;;;;;;5076727;28;20180;-84
2022/06/18 01:21:47;;;;;;;4.50;4.20;;;23.40;57.60;;;;;;5083324;28;20195;-84
2022/06/18 01:24:16;;;;;;;4.82;4.43;;;23.40;57.70;;;;;;5081080;28;20207;-83
2022/06/18 01:26:44;;;;;;;4.93;4.45;;;23.40;57.50;;;;;;5090947;28;20187;-85
2022/06/18 01:29:10;;;;;;;4.63;4.32;;;23.30;58.00;;;;;;5086385;28;20266;-85
2022/06/18 01:31:36;;;;;;;4.38;4.05;;;23.20;58.20;;;;;;5080498;28;20191;-84
2022/06/18 01:34:04;;;;;;;4.60;4.30;;;23.20;58.10;;;;;;5078760;28;20219;-83
2022/06/18 01:36:35;;;;;;;4.50;4.20;;;23.20;58.90;;;;;;5083882;28;20191;-84
2022/06/18 01:39:04;;;;;;;4.43;4.13;;;23.20;58.20;;;;;;5079343;28;20210;-83
2022/06/18 01:42:00;;;;;;;5.35;4.95;;;23.20;58.30;;;;;;5094757;28;20187;-84
2022/06/18 01:44:51;;;;;;;4.10;3.90;;;23.20;58.60;;;;;;5064213;28;20219;-83
2022/06/18 01:47:39;;;;;;;4.88;4.40;;;23.10;59.20;;;;;;5088491;28;20188;-83
2022/06/18 01:50:17;;;;;;;4.30;4.10;;;23.00;59.60;;;;;;5087979;28;20179;-85
2022/06/18 01:52:50;;;;;;;5.00;4.70;;;23.00;59.70;;;;;;5077407;28;20179;-83
2022/06/18 01:55:21;;;;;;;5.45;5.05;;;22.90;60.40;;;;;;5084740;28;20215;-83
2022/06/18 01:57:57;;;;;;;4.90;4.60;;;22.80;61.40;;;;;;5085651;28;20218;-84
2022/06/18 02:00:26;;;;;;;5.22;4.82;;;22.80;61.20;;;;;;5084809;28;20243;-83
2022/06/18 02:02:52;;;;;;;5.13;4.82;;;22.80;61.80;;;;;;5089916;28;20179;-83
2022/06/18 02:05:20;;;;;;;5.10;4.57;;;22.70;62.60;;;;;;5086798;28;20206;-83
2022/06/18 02:07:47;;;;;;;5.28;4.80;;;22.60;63.40;;;;;;5083080;28;20176;-83
2022/06/18 02:10:42;;;;;;;6.05;4.85;;;22.60;62.90;;;;;;5090007;28;20202;-84
2022/06/18 02:13:08;;;;;;;5.40;4.93;;;22.50;63.10;;;;;;5040911;28;20215;-84
2022/06/18 02:15:41;;;;;;;5.00;4.70;;;22.40;63.30;;;;;;5080183;28;20625;-84
2022/06/18 02:18:09;;;;;;;4.90;4.60;;;22.40;62.70;;;;;;5072367;28;20187;-85
2022/06/18 02:20:42;;;;;;;5.05;4.75;;;22.50;62.50;;;;;;5085953;28;20762;-84
2022/06/18 02:23:08;;;;;;;4.50;4.28;;;22.60;62.20;;;;;;5083041;28;20183;-84
2022/06/18 02:25:34;;;;;;;5.10;4.70;;;22.40;62.90;;;;;;5083892;28;20603;-84
2022/06/18 02:28:18;;;;;;;4.97;4.68;;;22.20;63.50;;;;;;5085082;28;20194;-84
2022/06/18 02:30:44;;;;;;;5.32;4.75;;;22.00;64.90;;;;;;5092240;28;20233;-84
2022/06/18 02:33:19;;;;;;;4.68;4.38;;;21.70;66.90;;;;;;5092501;28;20215;-84
2022/06/18 02:35:44;;;;;;;5.10;4.68;;;21.60;66.60;;;;;;5083403;28;20538;-84
2022/06/18 02:38:18;;;;;;;5.38;4.90;;;21.70;66.20;;;;;;5066139;28;20689;-84
2022/06/18 02:40:44;;;;;;;4.53;4.22;;;21.70;66.10;;;;;;5091067;28;20183;-84
2022/06/18 02:43:11;;;;;;;5.28;4.78;;;21.80;65.30;;;;;;5084653;28;20187;-84
2022/06/18 02:45:38;;;;;;;4.43;4.18;;;22.00;64.70;;;;;;5082991;28;20195;-84
2022/06/18 02:48:05;;;;;;;5.45;5.00;;;22.00;64.00;;;;;;5076005;28;20180;-84
2022/06/18 02:50:34;;;;;;;4.90;4.60;;;22.10;63.70;;;;;;5085646;28;20206;-84
2022/06/18 02:53:02;;;;;;;5.25;4.80;;;22.10;63.80;;;;;;5086266;28;20183;-84
2022/06/18 02:55:33;;;;;;;4.93;4.53;;;21.90;64.40;;;;;;5086433;28;20195;-84
2022/06/18 02:58:13;;;;;;;5.05;4.75;;;21.80;64.80;;;;;;5077099;28;20172;-84
2022/06/18 03:00:42;;;;;;;4.97;4.68;;;21.90;64.40;;;;;;5099669;28;20193;-84
2022/06/18 03:03:11;;;;;;;4.53;4.22;;;21.90;64.00;;;;;;5062490;28;20191;-84
2022/06/18 03:05:37;;;;;;;5.22;4.93;;;21.80;63.90;;;;;;5071521;28;20291;-85
2022/06/18 03:08:03;;;;;;;5.07;4.78;;;21.90;63.80;;;;;;5086523;28;20539;-85
2022/06/18 03:13:18;;;;;;;4.75;4.45;;;21.90;63.80;;;;;;5090410;28;20294;-84
2022/06/18 03:15:48;;;;;;;4.85;4.55;;;22.00;63.40;;;;;;5086882;28;20179;-83
2022/06/18 03:18:15;;;;;;;5.07;4.78;;;22.00;63.40;;;;;;5085618;28;20190;-84
2022/06/18 03:21:09;;;;;;;5.22;4.75;;;22.00;62.80;;;;;;5084998;28;20182;-84
2022/06/18 03:23:36;;;;;;;5.38;4.82;;;22.00;63.00;;;;;;5083823;28;20730;-84
2022/06/18 03:26:02;;;;;;;4.97;4.57;;;22.10;62.70;;;;;;5091516;28;20198;-84
2022/06/18 03:28:29;;;;;;;5.35;4.95;;;22.20;62.10;;;;;;5084957;28;20274;-84
2022/06/18 03:30:54;;;;;;;4.60;4.30;;;22.10;62.80;;;;;;5087479;28;20195;-84
2022/06/18 03:33:21;;;;;;;5.18;4.82;;;22.10;62.30;;;;;;5090470;28;20240;-84
2022/06/18 03:35:50;;;;;;;4.95;4.65;;;22.10;62.00;;;;;;5097142;28;20203;-84
2022/06/18 03:38:16;;;;;;;5.28;4.88;;;22.10;62.20;;;;;;5095014;28;20421;-84
2022/06/18 03:40:44;;;;;;;5.30;4.90;;;22.00;62.50;;;;;;5079722;28;20180;-84
2022/06/18 03:43:11;;;;;;;5.47;5.05;;;22.00;62.20;;;;;;5069197;28;20203;-84
2022/06/18 03:45:41;;;;;;;5.15;4.85;;;22.00;62.80;;;;;;5091509;28;20206;-84
2022/06/18 03:48:09;;;;;;;5.15;4.75;;;21.90;62.80;;;;;;5099343;28;20174;-84
2022/06/18 03:50:35;;;;;;;4.82;4.53;;;21.90;62.80;;;;;;5067176;28;20199;-84
2022/06/18 03:53:02;;;;;;;7.05;5.15;;;22.00;62.50;;;;;;5089725;28;20176;-84
2022/06/18 03:55:28;;;;;;;5.25;4.95;;;21.90;63.20;;;;;;5088611;28;20238;-84
2022/06/18 03:57:53;;;;;;;5.10;4.80;;;21.90;63.00;;;;;;5086584;28;20184;-84
2022/06/18 04:00:22;;;;;;;5.32;4.88;;;21.80;63.10;;;;;;5087797;28;20239;-84
2022/06/18 04:02:48;;;;;;;5.63;5.00;;;21.80;63.30;;;;;;5087231;28;20188;-84
2022/06/18 04:05:14;;;;;;;6.13;4.78;;;21.80;63.30;;;;;;5076931;28;20218;-84
2022/06/18 04:07:41;;;;;;;4.82;4.53;;;21.80;63.20;;;;;;5088876;28;20188;-84
2022/06/18 04:10:08;;;;;;;4.80;4.50;;;21.80;63.30;;;;;;5069377;28;20184;-84
2022/06/18 04:12:34;;;;;;;5.30;4.90;;;21.90;63.00;;;;;;5088397;28;20209;-85
2022/06/18 04:15:00;;;;;;;5.40;5.00;;;21.80;63.40;;;;;;5091860;28;20727;-84
2022/06/18 04:17:26;;;;;;;5.07;4.72;;;21.80;63.50;;;;;;5083202;28;20179;-85
2022/06/18 04:19:51;;;;;;;5.50;4.95;;;21.80;63.20;;;;;;5073432;28;20206;-85
2022/06/18 04:22:17;;;;;;;5.20;4.70;;;21.80;63.70;;;;;;5089863;28;20214;-85
2022/06/18 04:24:43;;;;;;;5.18;4.88;;;21.80;64.20;;;;;;5089050;28;20208;-84
2022/06/18 04:27:09;;;;;;;5.28;4.68;;;21.70;64.20;;;;;;5088410;28;20191;-85
2022/06/18 04:29:35;;;;;;;5.13;4.72;;;21.70;65.10;;;;;;5086278;28;20190;-84
2022/06/18 04:32:02;;;;;;;5.30;4.95;;;21.60;65.20;;;;;;5073909;28;20254;-84
2022/06/18 04:34:28;;;;;;;5.20;4.80;;;21.60;65.30;;;;;;5091851;28;20219;-84
2022/06/18 04:36:54;;;;;;;5.35;4.57;;;21.60;64.80;;;;;;5096907;28;20210;-84
2022/06/18 04:39:20;;;;;;;4.90;4.50;;;21.70;64.50;;;;;;5090868;28;20745;-85
2022/06/18 04:41:46;;;;;;;5.22;4.90;;;21.70;64.80;;;;;;5071320;28;20271;-84
2022/06/18 04:44:13;;;;;;;5.72;5.28;;;21.70;65.50;;;;;;5085979;28;20268;-84
2022/06/18 04:46:39;;;;;;;4.75;4.45;;;21.80;64.70;;;;;;5088298;28;20210;-84
2022/06/18 04:49:05;;;;;;;5.38;4.50;;;21.90;64.00;;;;;;5085519;28;20196;-87
2022/06/18 04:51:31;;;;;;;5.25;4.95;;;21.90;64.90;;;;;;5084957;28;20187;-87
2022/06/18 04:53:56;;;;;;;5.15;4.85;;;21.80;65.90;;;;;;5101585;28;20245;-86
2022/06/18 04:56:22;;;;;;;5.22;4.80;;;21.70;66.30;;;;;;5104943;28;20187;-87
2022/06/18 04:58:48;;;;;;;4.95;4.65;;;21.70;66.80;;;;;;5088784;28;20187;-86
2022/06/18 05:01:19;;;;;;;5.60;5.30;;;21.80;65.70;;;;;;5085142;28;20198;-86
2022/06/18 05:03:45;;;;;;;5.25;4.72;;;21.80;66.90;;;;;;5080841;28;20211;-87
2022/06/18 05:06:11;;;;;;;5.43;5.03;;;21.70;67.30;;;;;;5086503;28;20187;-87
2022/06/18 05:08:37;;;;;;;5.22;4.93;;;21.70;66.20;;;;;;5099563;28;20179;-87
2022/06/18 05:11:03;;;;;;;5.93;5.47;;;21.80;66.40;;;;;;5067244;28;20192;-87
2022/06/18 05:13:29;;;;;;;5.40;5.00;;;21.80;65.50;;;;;;5084718;28;20211;-87
2022/06/18 05:15:57;;;;;;;5.00;4.70;;;21.90;65.00;;;;;;5093365;28;20197;-87
2022/06/18 05:18:27;;;;;;;5.55;5.25;;;22.00;63.60;;;;;;5105495;28;20193;-87
2022/06/18 05:20:53;;;;;;;5.25;4.85;;;22.10;60.70;;;;;;5088408;28;20190;-87
2022/06/18 05:23:20;;;;;;;5.88;4.93;;;22.20;61.40;;;;;;5085366;28;20214;-87
2022/06/18 05:25:46;;;;;;;5.75;5.28;;;22.30;63.10;;;;;;5066285;28;20176;-87
2022/06/18 05:28:14;;;;;;;6.15;5.65;;;22.30;62.50;;;;;;5075792;28;20217;-87
2022/06/18 05:30:40;;;;;;;5.20;4.90;;;22.30;63.00;;;;;;5087220;28;20550;-87
2022/06/18 05:33:06;;;;;;;5.38;5.07;;;22.40;62.20;;;;;;5084776;28;20191;-87
2022/06/18 05:35:35;;;;;;;5.15;4.82;;;22.50;61.70;;;;;;5089539;28;20175;-87
2022/06/18 05:38:00;;;;;;;5.63;5.32;;;22.50;61.10;;;;;;5084670;28;20258;-87
2022/06/18 05:40:26;;;;;;;5.70;5.30;;;22.60;62.30;;;;;;5075005;28;20179;-87
2022/06/18 05:42:55;;;;;;;5.35;5.05;;;22.60;61.40;;;;;;5084579;28;20187;-87
2022/06/18 05:45:21;;;;;;;6.35;5.75;;;22.70;61.20;;;;;;5084364;28;20218;-87
2022/06/18 05:47:48;;;;;;;5.93;5.40;;;22.70;60.90;;;;;;5083982;28;20186;-87
2022/06/18 05:50:16;;;;;;;5.72;5.32;;;22.80;61.00;;;;;;5085470;28;20805;-87
2022/06/18 05:52:42;;;;;;;6.72;5.70;;;22.80;61.00;;;;;;5096901;28;20246;-87
2022/06/18 05:55:08;;;;;;;11.50;5.88;;;22.90;61.00;;;;;;5087665;28;20260;-88
2022/06/18 05:57:43;;;;;;;7.60;5.47;;;23.00;60.90;;;;;;5100414;28;20518;-87
2022/06/18 06:00:12;;;;;;;7.95;5.50;;;23.10;59.80;;;;;;5104121;28;20196;-86
2022/06/18 06:02:38;;;;;;;6.18;5.68;;;23.10;59.90;;;;;;5084189;28;20176;-86
2022/06/18 06:05:04;;;;;;;7.75;5.65;;;23.10;59.70;;;;;;5083865;28;20202;-86
2022/06/18 06:07:30;;;;;;;6.18;4.97;;;23.20;59.70;;;;;;5096650;28;20246;-86
2022/06/18 06:12:40;;;;;;;5.60;5.20;;;23.30;59.40;;;;;;5083936;28;20229;-86
2022/06/18 06:15:07;;;;;;;5.72;5.18;;;23.30;58.60;;;;;;5084100;28;20771;-86
2022/06/18 06:17:33;;;;;;;6.72;5.60;;;23.40;57.30;;;;;;5066305;28;20190;-86
2022/06/18 06:20:24;;;;;;;5.75;5.28;;;23.30;58.60;;;;;;5083697;28;20172;-86
2022/06/18 06:22:50;;;;;;;6.03;5.63;;;23.30;61.40;;;;;;5084695;28;20152;-87
2022/06/18 06:25:16;;;;;;;7.05;5.95;;;23.30;59.70;;;;;;5084395;28;20213;-87
2022/06/18 06:27:42;;;;;;;5.97;5.57;;;23.50;58.50;;;;;;5089781;28;20187;-87
2022/06/18 06:30:12;;;;;;;6.25;5.30;;;23.60;57.20;;;;;;5102679;28;20183;-87
2022/06/18 06:32:38;;;;;;;5.75;5.43;;;23.80;56.50;;;;;;5103717;28;20167;-87
2022/06/18 06:35:05;;;;;;;6.07;5.57;;;23.80;55.70;;;;;;5085794;28;20203;-87
2022/06/18 06:37:31;;;;;;;6.13;5.72;;;23.80;56.40;;;;;;5079442;28;20189;-87
2022/06/18 06:39:56;;;;;;;6.00;5.45;;;24.00;55.20;;;;;;5054861;28;20592;-88
2022/06/18 06:42:22;;;;;;;5.82;5.43;;;24.20;54.20;;;;;;5083883;28;20187;-87
2022/06/18 06:44:48;;;;;;;6.25;5.68;;;24.20;54.20;;;;;;5082222;28;20237;-88
2022/06/18 06:47:14;;;;;;;6.20;5.60;;;24.20;52.60;;;;;;5065570;28;20264;-88
2022/06/18 06:49:39;;;;;;;5.82;5.32;;;24.30;52.80;;;;;;5085112;28;20224;-87
2022/06/18 06:52:05;;;;;;;5.88;5.40;;;24.30;52.10;;;;;;5086157;28;20229;-88
2022/06/18 06:54:31;;;;;;;5.90;5.43;;;24.30;53.10;;;;;;5089711;28;20203;-88
2022/06/18 06:59:41;;;;;;;5.45;5.03;;;24.40;52.30;;;;;;5086269;28;20182;-87
2022/06/18 07:02:20;;;;;;;5.88;5.38;;;24.50;53.10;;;;;;5085555;28;20690;-85
2022/06/18 07:04:46;;;;;;;5.50;5.07;;;24.40;51.90;;;;;;5086753;28;20203;-87
2022/06/18 07:07:13;;;;;;;6.50;5.38;;;24.60;52.80;;;;;;5064969;28;20275;-86
2022/06/18 07:09:39;;;;;;;6.38;5.82;;;24.80;52.80;;;;;;5082894;28;20192;-87
2022/06/18 07:12:06;;;;;;;5.38;4.97;;;24.80;52.40;;;;;;5082408;28;20293;-87
2022/06/18 07:14:32;;;;;;;5.63;5.25;;;24.90;51.10;;;;;;5085080;28;20782;-87
2022/06/18 07:16:58;;;;;;;5.70;5.30;;;25.10;50.00;;;;;;5068167;28;20192;-87
2022/06/18 07:19:25;;;;;;;6.88;5.78;;;25.20;50.10;;;;;;5082536;28;20248;-87
2022/06/18 07:21:51;;;;;;;5.15;4.85;;;25.30;49.20;;;;;;5089916;28;20212;-87
2022/06/18 07:24:18;;;;;;;5.97;5.47;;;25.40;48.30;;;;;;5080058;28;20272;-86
2022/06/18 07:26:44;;;;;;;5.75;5.35;;;25.30;50.00;;;;;;5079420;28;20511;-86
2022/06/18 07:29:09;;;;;;;5.93;5.53;;;25.40;49.70;;;;;;5064692;28;20194;-87
2022/06/18 07:31:35;;;;;;;6.25;5.65;;;25.50;49.90;;;;;;5057328;28;20198;-86
2022/06/18 07:34:04;;;;;;;5.90;5.50;;;25.60;50.10;;;;;;5077880;28;20628;-87
2022/06/18 07:36:32;;;;;;;5.80;5.30;;;25.70;50.40;;;;;;5085068;28;20211;-85
2022/06/18 07:38:59;;;;;;;6.50;5.40;;;25.60;51.30;;;;;;5065047;28;20192;-88
2022/06/18 07:41:38;;;;;;;6.15;5.75;;;25.70;50.30;;;;;;5078180;28;20183;-86
2022/06/18 07:44:04;;;;;;;5.63;5.15;;;25.80;49.30;;;;;;5079596;28;20214;-86
2022/06/18 07:46:30;;;;;;;6.07;5.57;;;25.80;47.30;;;;;;5059009;28;20241;-86
2022/06/18 07:49:14;;;;;;;6.28;5.88;;;25.80;50.70;;;;;;5079109;28;20284;-86
2022/06/18 07:51:40;;;;;;;6.30;5.90;;;26.10;50.40;;;;;;5045162;28;20269;-86
2022/06/18 07:54:06;;;;;;;7.28;6.05;;;26.30;49.70;;;;;;5085618;28;20211;-86
2022/06/18 07:56:33;;;;;;;6.20;5.70;;;26.40;50.80;;;;;;5093330;28;20234;-86
2022/06/18 07:58:59;;;;;;;8.30;6.07;;;26.50;50.50;;;;;;5087070;28;20180;-85
2022/06/18 08:01:25;;;;;;;6.43;6.03;;;26.60;50.00;;;;;;5087342;28;20179;-87
2022/06/18 08:03:51;;;;;;;6.97;6.53;;;26.70;50.10;;;;;;5086006;28;20207;-87
2022/06/18 08:06:17;;;;;;;6.35;5.82;;;26.80;49.10;;;;;;5086992;28;20196;-87
2022/06/18 08:08:43;;;;;;;6.22;5.78;;;26.80;48.80;;;;;;5098825;28;20194;-86
2022/06/18 08:11:15;;;;;;;6.55;6.05;;;27.00;49.60;;;;;;5091692;28;20210;-86
2022/06/18 08:13:42;;;;;;;6.90;6.32;;;27.00;50.90;;;;;;5090651;28;20242;-87
2022/06/18 08:16:10;;;;;;;6.63;6.22;;;27.00;47.90;;;;;;5105229;28;20274;-86
2022/06/18 08:18:36;;;;;;;6.38;5.97;;;27.20;49.10;;;;;;5085179;28;20183;-87
2022/06/18 08:21:07;;;;;;;6.93;6.40;;;27.20;49.90;;;;;;5086808;28;20756;-87
2022/06/18 08:23:35;;;;;;;5.85;5.50;;;27.50;48.40;;;;;;5074665;28;20204;-87
2022/06/18 08:26:01;;;;;;;5.53;5.13;;;27.70;47.80;;;;;;5075703;28;20214;-86
2022/06/18 08:28:27;;;;;;;5.65;5.25;;;27.80;48.10;;;;;;5094091;28;20190;-87
2022/06/18 08:30:53;;;;;;;6.05;5.40;;;27.90;46.70;;;;;;5108380;28;20179;-88
2022/06/18 08:33:18;;;;;;;5.95;5.53;;;28.00;44.80;;;;;;5083288;28;20237;-85
2022/06/18 08:35:45;;;;;;;5.90;5.25;;;28.20;44.50;;;;;;5087235;28;20225;-85
2022/06/18 08:38:12;;;;;;;6.07;5.68;;;28.30;42.40;;;;;;5089012;28;20183;-85
2022/06/18 08:41:06;;;;;;;6.20;5.78;;;28.30;43.30;;;;;;5071947;28;20207;-86
2022/06/18 08:43:54;;;;;;;7.05;5.93;;;28.20;41.60;;;;;;5078133;28;20230;-86
2022/06/18 08:46:34;;;;;;;6.53;5.28;;;28.30;41.80;;;;;;5093633;28;20238;-85
2022/06/18 08:49:12;;;;;;;6.53;6.13;;;28.40;38.50;;;;;;5091535;28;20195;-85
2022/06/18 08:52:08;;;;;;;6.80;5.13;;;28.70;43.10;;;;;;5086533;28;20253;-84
2022/06/18 08:55:06;;;;;;;5.78;5.38;;;29.00;39.50;;;;;;5091414;28;20207;-86
2022/06/18 08:57:44;;;;;;;6.25;5.75;;;29.10;39.30;;;;;;5086021;28;20206;-85
2022/06/18 09:00:50;;;;;;;13.93;6.47;;;29.40;39.50;;;;;;5086767;28;20180;-86
2022/06/18 09:03:26;;;;;;;6.40;5.40;;;29.60;38.40;;;;;;5087220;28;20192;-84
2022/06/18 09:06:12;;;;;;;6.13;5.72;;;29.70;38.20;;;;;;5088095;28;20199;-85
2022/06/18 09:09:00;;;;;;;6.00;5.53;;;29.70;38.80;;;;;;5088201;28;20686;-85
2022/06/18 09:11:51;;;;;;;5.75;5.45;;;29.90;38.80;;;;;;5082368;28;20213;-84
2022/06/18 09:14:30;;;;;;;6.43;5.72;;;30.10;38.80;;;;;;5094942;28;20298;-84
2022/06/18 09:17:28;;;;;;;5.60;5.10;;;30.00;38.00;;;;;;5088950;28;20266;-84
2022/06/18 09:20:22;;;;;;;6.00;5.53;;;30.40;37.40;;;;;;5088383;28;20178;-84
2022/06/18 09:23:04;;;;;;;6.28;5.72;;;30.40;37.70;;;;;;5084689;28;20191;-85
2022/06/18 09:25:38;;;;;;;7.55;5.93;;;30.50;36.30;;;;;;5070516;28;20183;-85
2022/06/18 09:28:06;;;;;;;6.10;5.70;;;30.40;38.20;;;;;;5094039;28;20558;-87
2022/06/18 09:30:45;;;;;;;6.38;5.15;;;30.60;38.10;;;;;;5085359;28;20183;-87
2022/06/18 09:33:27;;;;;;;5.68;5.32;;;30.60;35.70;;;;;;5081084;28;20582;-86
2022/06/18 09:35:56;;;;;;;5.88;5.47;;;30.70;34.90;;;;;;5087548;28;20171;-85
2022/06/18 09:38:31;;;;;;;6.28;5.68;;;30.90;37.40;;;;;;5081567;28;20213;-86
2022/06/18 09:41:02;;;;;;;6.32;5.85;;;31.00;38.80;;;;;;5069742;28;20179;-84
2022/06/18 09:43:50;;;;;;;7.78;5.40;;;31.20;38.10;;;;;;5086021;28;20234;-84
2022/06/18 09:46:30;;;;;;;8.25;6.20;;;31.50;35.80;;;;;;5081344;28;20219;-85
2022/06/18 09:48:56;;;;;;;6.63;6.22;;;31.60;35.80;;;;;;5084594;28;20247;-86
2022/06/18 09:51:58;;;;;;;6.22;5.85;;;31.70;36.20;;;;;;5092601;28;20195;-85
2022/06/18 09:54:30;;;;;;;6.63;6.03;;;31.80;35.10;;;;;;5086959;28;20226;-86
2022/06/18 09:57:00;;;;;;;6.32;5.93;;;31.80;34.30;;;;;;5080502;28;20211;-86
2022/06/18 09:59:29;;;;;;;6.05;5.45;;;32.00;34.00;;;;;;5093839;28;20199;-86
2022/06/18 10:01:56;;;;;;;20.27;9.40;;;32.20;32.10;;;;;;5089335;28;20187;-85
2022/06/18 10:07:28;;;;;;;11.27;6.63;;;32.50;34.00;;;;;;5082382;28;20197;-84
2022/06/18 10:09:57;;;;;;;5.93;5.47;;;32.70;32.90;;;;;;5086773;28;20232;-85
2022/06/18 10:12:36;;;;;;;8.30;6.15;;;32.80;32.10;;;;;;5087016;28;20194;-85
2022/06/18 10:15:05;;;;;;;6.80;5.63;;;33.00;32.60;;;;;;5063081;28;20282;-85
2022/06/18 10:17:34;;;;;;;9.18;6.05;;;33.20;32.10;;;;;;5082794;28;20192;-84
2022/06/18 10:20:12;;;;;;;8.60;6.20;;;33.00;32.50;;;;;;5077058;28;20188;-85
2022/06/18 10:23:03;;;;;;;7.85;7.00;;;33.20;32.20;;;;;;5078177;28;20184;-86
2022/06/18 10:25:32;;;;;;;6.25;5.88;;;33.40;30.40;;;;;;5090414;28;20678;-85
2022/06/18 10:28:19;;;;;;;6.85;6.35;;;33.40;30.50;;;;;;5062684;28;20215;-84
2022/06/18 10:31:16;;;;;;;6.35;6.05;;;33.60;30.70;;;;;;5077515;28;20191;-89
2022/06/18 10:33:59;;;;;;;6.80;6.30;;;33.90;30.10;;;;;;5068723;28;20226;-87
2022/06/18 10:36:44;;;;;;;7.13;6.55;;;34.00;30.80;;;;;;5082173;28;20168;-87
2022/06/18 10:39:22;;;;;;;9.27;6.75;;;33.70;30.20;;;;;;5089431;28;20182;-87
2022/06/18 10:41:59;;;;;;;7.18;6.20;;;33.90;29.60;;;;;;5068892;28;20273;-90
2022/06/18 10:44:31;;;;;;;6.85;6.40;;;34.10;30.00;;;;;;5081727;28;20589;-89
2022/06/18 10:47:15;;;;;;;7.22;6.82;;;34.40;29.40;;;;;;5082925;28;20210;-90
2022/06/18 10:49:41;;;;;;;7.28;6.57;;;34.50;28.90;;;;;;5103450;28;20218;-90
2022/06/18 10:52:23;;;;;;;6.97;6.50;;;34.70;29.00;;;;;;5094213;28;20727;-90
2022/06/18 10:54:49;;;;;;;7.32;6.70;;;34.90;28.90;;;;;;5086022;28;20199;-90
2022/06/18 10:57:26;;;;;;;6.65;6.25;;;34.80;29.10;;;;;;5085712;28;20233;-91
2022/06/18 10:59:52;;;;;;;7.15;6.55;;;35.00;28.60;;;;;;5066851;28;20180;-91
2022/06/18 11:02:37;;;;;;;6.72;6.43;;;35.10;28.80;;;;;;5087583;28;20202;-90
2022/06/18 11:05:18;;;;;;;6.82;6.47;;;35.40;28.20;;;;;;5084488;28;20198;-91
2022/06/18 11:07:49;;;;;;;7.45;6.82;;;35.60;27.80;;;;;;5071286;28;20183;-90
2022/06/18 11:10:44;;;;;;;7.15;6.75;;;35.70;28.30;;;;;;5064539;28;20280;-91
2022/06/18 11:13:20;;;;;;;7.60;6.90;;;35.80;28.20;;;;;;5066584;28;20205;-88
2022/06/18 11:15:46;;;;;;;7.25;6.85;;;35.70;28.70;;;;;;5081576;28;20226;-87
2022/06/18 11:18:21;;;;;;;7.28;6.88;;;35.80;27.70;;;;;;5089771;28;20205;-85
2022/06/18 11:21:06;;;;;;;8.05;7.38;;;36.00;28.10;;;;;;5077150;28;20269;-86
2022/06/18 11:23:35;;;;;;;7.15;6.75;;;36.20;28.20;;;;;;5077950;28;20203;-86
2022/06/18 11:26:02;;;;;;;10.15;7.53;;;36.20;27.50;;;;;;5079014;28;20194;-85
2022/06/18 11:28:36;;;;;;;8.02;7.50;;;36.40;27.30;;;;;;5080933;28;20187;-86
2022/06/18 11:31:04;;;;;;;7.65;7.13;;;36.30;28.00;;;;;;5084421;28;20206;-85
2022/06/18 11:33:35;;;;;;;16.27;9.10;;;36.60;27.10;;;;;;5082878;28;20215;-84
2022/06/18 11:36:12;;;;;;;12.88;8.23;;;36.90;27.40;;;;;;5084804;28;20179;-86
2022/06/18 11:38:40;;;;;;;8.00;7.40;;;37.00;27.50;;;;;;5078885;28;20187;-84
2022/06/18 11:41:18;;;;;;;7.80;7.35;;;37.10;26.70;;;;;;5081624;28;20273;-86
2022/06/18 11:43:56;;;;;;;7.43;7.03;;;37.20;26.30;;;;;;5062712;28;20233;-86
2022/06/18 11:47:03;;;;;;;7.55;7.15;;;37.20;26.20;;;;;;5062083;28;20273;-86
2022/06/18 11:49:38;;;;;;;7.78;7.28;;;37.50;26.50;;;;;;5080853;28;20186;-84
2022/06/18 11:52:26;;;;;;;7.93;7.32;;;37.40;26.20;;;;;;5087527;28;20218;-85
2022/06/18 11:55:37;;;;;;;7.70;6.97;;;37.40;26.50;;;;;;5083641;28;20277;-85
2022/06/18 11:58:44;;;;;;;7.40;7.00;;;37.70;26.30;;;;;;5082654;28;20198;-83
2022/06/18 12:01:32;;;;;;;8.48;7.30;;;37.90;26.20;;;;;;5084962;28;20242;-87
2022/06/18 12:04:11;;;;;;;8.45;7.65;;;37.90;26.00;;;;;;5082314;28;20206;-85
2022/06/18 12:07:31;;;;;;;7.95;7.45;;;38.30;25.70;;;;;;5082374;28;20186;-85
2022/06/18 12:09:57;;;;;;;7.63;7.22;;;38.50;25.80;;;;;;5056910;28;20195;-84
2022/06/18 12:12:42;;;;;;;8.02;7.53;;;38.50;25.80;;;;;;5080322;28;20302;-85
2022/06/18 12:15:29;;;;;;;8.15;7.53;;;38.60;24.90;;;;;;5081755;28;20206;-85
2022/06/18 12:18:00;;;;;;;8.30;7.72;;;38.70;25.20;;;;;;5083859;28;20202;-85
2022/06/18 12:20:29;;;;;;;7.63;7.32;;;38.70;24.90;;;;;;5085248;28;20684;-86
2022/06/18 12:23:02;;;;;;;8.88;8.38;;;38.70;25.00;;;;;;5083843;28;20179;-86
2022/06/18 12:25:47;;;;;;;7.85;7.45;;;38.70;24.60;;;;;;5082860;28;20190;-84
2022/06/18 12:28:43;;;;;;;7.70;7.30;;;38.30;24.50;;;;;;5082186;28;20182;-82
2022/06/18 12:31:31;;;;;;;7.60;7.18;;;38.40;24.50;;;;;;5081777;28;20187;-85
2022/06/18 12:34:22;;;;;;;8.23;7.65;;;38.80;24.50;;;;;;5082639;28;20238;-87
2022/06/18 12:37:20;;;;;;;7.30;7.00;;;39.20;24.60;;;;;;5064685;28;20636;-86
2022/06/18 12:40:12;;;;;;;7.68;7.25;;;39.50;24.40;;;;;;5082923;28;20175;-86
2022/06/18 12:42:48;;;;;;;7.95;7.55;;;39.50;24.30;;;;;;5083055;28;20872;-86
2022/06/18 12:45:36;;;;;;;8.50;7.90;;;39.70;24.10;;;;;;5081978;28;20241;-83
2022/06/18 12:48:14;;;;;;;9.02;8.40;;;39.70;24.40;;;;;;5082098;28;20183;-86
2022/06/18 12:51:05;;;;;;;8.45;7.95;;;39.90;23.80;;;;;;5084732;28;20204;-85
2022/06/18 12:53:49;;;;;;;8.55;7.95;;;39.80;23.60;;;;;;5082153;28;20207;-83
2022/06/18 12:56:42;;;;;;;8.70;8.07;;;40.30;23.60;;;;;;5083609;28;20185;-86
2022/06/18 12:59:23;;;;;;;9.15;8.40;;;40.30;23.90;;;;;;5070516;28;20174;-84
2022/06/18 13:01:56;;;;;;;8.45;7.88;;;40.00;23.70;;;;;;5082094;28;20269;-84
2022/06/18 13:04:46;;;;;;;10.70;8.73;;;39.90;23.50;;;;;;5087804;28;20525;-82
2022/06/18 13:07:31;;;;;;;8.30;7.60;;;40.00;24.10;;;;;;5083417;28;20270;-84
2022/06/18 13:09:56;;;;;;;8.50;7.90;;;40.00;23.80;;;;;;5086436;28;20191;-85
2022/06/18 13:12:45;;;;;;;9.43;8.82;;;40.10;23.90;;;;;;5087082;28;20232;-82
2022/06/18 13:15:48;;;;;;;8.40;7.90;;;40.10;23.00;;;;;;5084221;28;20210;-85
2022/06/18 13:18:50;;;;;;;9.10;8.70;;;40.10;23.70;;;;;;5073496;28;20224;-84
2022/06/18 13:21:15;;;;;;;8.90;8.45;;;40.40;23.70;;;;;;5072691;28;20186;-83
2022/06/18 13:29:34;;;;;;;8.45;8.05;;;40.60;23.20;;;;;;5085851;28;20289;-84
2022/06/18 13:32:12;;;;;;;7.75;7.13;;;40.20;23.00;;;;;;5089493;28;20232;-86
2022/06/18 13:35:04;;;;;;;8.02;7.53;;;40.20;22.90;;;;;;5088792;28;20214;-85